createdAt,value
2022-09-01T00:00:49.419Z,7.30
2022-09-01T00:03:20.225Z,7.93
2022-09-01T00:05:49.939Z,8.48
2022-09-01T00:08:18.396Z,7.85
2022-09-01T00:10:46.833Z,8.45
2022-09-01T00:13:15.428Z,7.78
2022-09-01T00:15:44.163Z,10.60
2022-09-01T00:18:12.201Z,7.28
2022-09-01T00:20:41.634Z,7.43
2022-09-01T00:23:09.640Z,8.07
2022-09-01T00:25:37.820Z,7.95
2022-09-01T00:28:05.849Z,8.65
2022-09-01T00:30:33.885Z,7.80
2022-09-01T00:33:02.553Z,7.85
2022-09-01T00:35:30.555Z,8.20
2022-09-01T00:37:59.965Z,7.45
2022-09-01T00:40:29.366Z,8.32
2022-09-01T00:42:57.382Z,8.18
2022-09-01T00:45:25.560Z,8.82
2022-09-01T00:47:53.828Z,8.20
2022-09-01T00:50:22.583Z,7.57
2022-09-01T00:52:54.010Z,8.00
2022-09-01T00:55:29.588Z,9.32
2022-09-01T00:57:58.355Z,8.40
2022-09-01T01:00:29.993Z,8.45
2022-09-01T01:02:58.996Z,8.50
2022-09-01T01:05:33.167Z,7.90
2022-09-01T01:08:02.133Z,8.63
2022-09-01T01:10:35.942Z,7.53
2022-09-01T01:13:08.975Z,8.55
2022-09-01T01:15:37.994Z,7.85
2022-09-01T01:18:05.932Z,8.85
2022-09-01T01:20:53.325Z,8.65
2022-09-01T01:23:37.146Z,8.23
2022-09-01T01:26:09.382Z,7.78
2022-09-01T01:28:44.429Z,8.35
2022-09-01T01:31:15.972Z,9.63
2022-09-01T01:33:46.636Z,7.85
2022-09-01T01:36:17.849Z,9.07
2022-09-01T01:38:48.029Z,9.57
2022-09-01T01:41:19.883Z,7.78
2022-09-01T01:43:48.323Z,7.97
2022-09-01T01:46:18.204Z,7.88
2022-09-01T01:48:47.159Z,8.10
2022-09-01T01:51:15.167Z,10.32
2022-09-01T01:53:43.132Z,8.52
2022-09-01T01:56:11.676Z,8.57
2022-09-01T01:58:41.702Z,12.07
2022-09-01T02:01:10.895Z,8.65
2022-09-01T02:03:39.416Z,8.88
2022-09-01T02:06:09.889Z,11.63
2022-09-01T02:08:42.090Z,8.57
2022-09-01T02:11:13.344Z,8.40
2022-09-01T02:13:42.681Z,8.60
2022-09-01T02:16:13.166Z,8.27
2022-09-01T02:18:48.673Z,8.32
2022-09-01T02:21:20.288Z,7.97
2022-09-01T02:23:50.600Z,8.73
2022-09-01T02:26:23.757Z,8.05
2022-09-01T02:28:55.987Z,8.02
2022-09-01T02:31:26.116Z,7.70
2022-09-01T02:33:54.851Z,8.18
2022-09-01T02:36:25.297Z,8.40
2022-09-01T02:38:56.839Z,9.00
2022-09-01T02:41:29.345Z,8.13
2022-09-01T02:44:02.606Z,8.35
2022-09-01T02:46:31.067Z,9.10
2022-09-01T02:49:04.595Z,9.70
2022-09-01T02:51:35.405Z,9.20
2022-09-01T02:54:04.035Z,8.60
2022-09-01T02:56:33.977Z,10.60
2022-09-01T02:59:03.443Z,8.80
2022-09-01T03:01:34.112Z,10.35
2022-09-01T03:04:05.735Z,10.73
2022-09-01T03:06:36.572Z,11.27
2022-09-01T03:09:07.382Z,9.52
2022-09-01T03:11:38.688Z,10.90
2022-09-01T03:14:08.997Z,9.50
2022-09-01T03:16:39.342Z,8.80
2022-09-01T03:19:09.063Z,8.63
2022-09-01T03:21:40.957Z,9.07
2022-09-01T03:24:10.023Z,11.35
2022-09-01T03:26:40.691Z,10.75
2022-09-01T03:29:10.267Z,9.93
2022-09-01T03:31:38.636Z,10.52
2022-09-01T03:34:11.145Z,10.02
2022-09-01T03:36:39.764Z,9.13
2022-09-01T03:39:14.650Z,10.15
2022-09-01T03:41:48.021Z,9.70
2022-09-01T03:44:17.551Z,9.95
2022-09-01T03:46:46.450Z,9.68
2022-09-01T03:49:16.995Z,10.60
2022-09-01T03:51:46.383Z,10.40
2022-09-01T03:54:14.968Z,10.27
2022-09-01T03:56:45.538Z,10.93
2022-09-01T03:59:17.049Z,10.13
2022-09-01T04:01:47.283Z,9.80
2022-09-01T04:04:15.754Z,9.57
2022-09-01T04:06:45.768Z,9.88
2022-09-01T04:09:14.112Z,9.80
2022-09-01T04:11:45.715Z,9.93
2022-09-01T04:14:14.394Z,11.55
2022-09-01T04:16:59.654Z,9.93
2022-09-01T04:19:30.658Z,9.75
2022-09-01T04:22:01.220Z,10.13
2022-09-01T04:24:31.277Z,12.07
2022-09-01T04:27:02.410Z,14.55
2022-09-01T04:29:32.030Z,10.20
2022-09-01T04:32:04.105Z,11.93
2022-09-01T04:34:38.780Z,14.10
2022-09-01T04:37:13.242Z,11.35
2022-09-01T04:39:51.284Z,11.82
2022-09-01T04:42:23.549Z,13.95
2022-09-01T04:44:51.954Z,10.77
2022-09-01T04:47:35.566Z,11.68
2022-09-01T04:50:14.274Z,11.88
2022-09-01T04:52:43.659Z,11.05
2022-09-01T04:55:17.864Z,11.52
2022-09-01T04:57:49.700Z,10.73
2022-09-01T05:00:23.489Z,10.48
2022-09-01T05:02:53.464Z,10.38
2022-09-01T05:05:24.351Z,9.77
2022-09-01T05:07:55.570Z,12.52
2022-09-01T05:10:30.023Z,9.77
2022-09-01T05:12:58.386Z,9.45
2022-09-01T05:15:26.412Z,10.13
2022-09-01T05:17:54.767Z,10.43
2022-09-01T05:20:25.162Z,11.20
2022-09-01T05:22:56.674Z,11.75
2022-09-01T05:25:26.071Z,11.10
2022-09-01T05:27:54.069Z,11.85
2022-09-01T05:30:22.422Z,10.55
2022-09-01T05:32:50.704Z,11.65
2022-09-01T05:35:18.987Z,9.65
2022-09-01T05:37:51.838Z,11.43
2022-09-01T05:40:20.172Z,11.73
2022-09-01T05:42:48.230Z,10.73
2022-09-01T05:45:23.391Z,10.38
2022-09-01T05:47:52.434Z,10.40
2022-09-01T05:50:21.729Z,10.60
2022-09-01T05:52:51.157Z,9.57
2022-09-01T05:55:19.127Z,9.80
2022-09-01T05:57:48.175Z,9.93
2022-09-01T06:00:18.181Z,10.07
2022-09-01T06:02:47.150Z,9.85
2022-09-01T06:05:15.295Z,10.52
2022-09-01T06:07:44.399Z,10.10
2022-09-01T06:10:14.872Z,9.90
2022-09-01T06:12:43.474Z,10.25
2022-09-01T06:15:16.108Z,9.85
2022-09-01T06:17:46.117Z,10.15
2022-09-01T06:20:14.125Z,11.63
2022-09-01T06:22:42.158Z,9.50
2022-09-01T06:25:11.150Z,9.32
2022-09-01T06:27:41.289Z,10.50
2022-09-01T06:30:15.508Z,9.85
2022-09-01T06:32:44.903Z,8.82
2022-09-01T06:35:13.594Z,8.82
2022-09-01T06:37:43.538Z,10.00
2022-09-01T06:40:17.260Z,9.10
2022-09-01T06:42:48.333Z,8.80
2022-09-01T06:45:17.662Z,10.15
2022-09-01T06:47:47.318Z,8.75
2022-09-01T06:51:14.886Z,8.77
2022-09-01T06:55:57.013Z,8.23
2022-09-01T06:58:26.493Z,9.75
2022-09-01T07:00:54.533Z,7.45
2022-09-01T07:03:25.122Z,7.68
2022-09-01T07:06:08.912Z,9.63
2022-09-01T07:14:22.278Z,7.43
2022-09-01T07:16:53.328Z,7.57
2022-09-01T07:19:54.619Z,8.25
2022-09-01T07:23:03.349Z,7.25
2022-09-01T07:25:12.794Z,7.10
2022-09-01T07:27:49.190Z,6.78
2022-09-01T07:30:20.872Z,6.97
2022-09-01T07:32:54.007Z,6.55
2022-09-01T07:35:23.923Z,6.55
2022-09-01T07:43:33.684Z,6.13
2022-09-01T07:49:28.864Z,6.15
2022-09-01T07:51:44.120Z,6.80
2022-09-01T07:54:13.937Z,6.82
2022-09-01T07:56:42.037Z,7.93
2022-09-01T07:59:14.823Z,6.60
2022-09-01T08:01:47.319Z,7.07
2022-09-01T08:04:15.636Z,6.30
2022-09-01T08:06:43.631Z,7.00
2022-09-01T08:09:32.985Z,7.05
2022-09-01T08:12:02.962Z,7.35
2022-09-01T08:14:35.123Z,7.30
2022-09-01T08:19:54.511Z,6.78
2022-09-01T08:22:24.483Z,6.70
2022-09-01T08:24:53.119Z,6.68
2022-09-01T08:27:21.609Z,10.25
2022-09-01T08:29:50.236Z,7.32
2022-09-01T08:32:21.007Z,6.43
2022-09-01T08:34:49.006Z,6.97
2022-09-01T08:37:17.015Z,6.03
2022-09-01T08:39:46.873Z,5.68
2022-09-01T08:42:23.293Z,6.60
2022-09-01T08:45:00.286Z,5.53
2022-09-01T08:47:44.340Z,6.03
2022-09-01T08:50:20.765Z,12.10
2022-09-01T08:52:56.196Z,6.55
2022-09-01T08:55:29.721Z,5.95
2022-09-01T08:57:59.793Z,5.30
2022-09-01T09:00:30.273Z,6.53
2022-09-01T09:03:10.392Z,5.72
2022-09-01T09:05:50.927Z,5.65
2022-09-01T09:08:36.575Z,5.60
2022-09-01T09:11:08.346Z,5.40
2022-09-01T09:13:45.652Z,6.85
2022-09-01T09:16:18.457Z,4.95
2022-09-01T09:18:56.240Z,4.70
2022-09-01T09:21:33.751Z,4.88
2022-09-01T09:24:10.209Z,5.15
2022-09-01T09:26:45.753Z,5.00
2022-09-01T09:29:13.752Z,4.93
2022-09-01T09:31:49.896Z,4.32
2022-09-01T09:34:35.234Z,4.45
2022-09-01T09:37:27.532Z,6.45
2022-09-01T09:40:10.449Z,5.05
2022-09-01T09:42:39.952Z,4.63
2022-09-01T09:45:22.740Z,4.72
2022-09-01T09:47:50.734Z,4.80
2022-09-01T09:50:25.646Z,4.68
2022-09-01T09:53:11.224Z,4.43
2022-09-01T09:55:56.323Z,4.82
2022-09-01T09:58:27.852Z,5.53
2022-09-01T10:01:05.583Z,4.63
2022-09-01T10:03:43.411Z,4.55
2022-09-01T10:06:16.248Z,4.82
2022-09-01T10:08:48.847Z,6.00
2022-09-01T10:11:35.383Z,6.13
2022-09-01T10:14:07.585Z,7.60
2022-09-01T10:16:39.941Z,5.53
2022-09-01T10:19:12.719Z,5.03
2022-09-01T10:21:45.047Z,5.07
2022-09-01T10:24:21.594Z,4.63
2022-09-01T10:26:57.403Z,5.45
2022-09-01T10:29:34.808Z,4.88
2022-09-01T10:32:30.408Z,5.22
2022-09-01T10:34:59.661Z,4.75
2022-09-01T10:37:29.652Z,5.10
2022-09-01T10:40:26.064Z,4.45
2022-09-01T10:43:05.387Z,4.55
2022-09-01T10:45:35.608Z,4.60
2022-09-01T10:48:32.093Z,4.75
2022-09-01T10:51:39.139Z,5.00
2022-09-01T10:55:03.809Z,5.85
2022-09-01T10:57:42.747Z,4.30
2022-09-01T11:01:10.533Z,4.47
2022-09-01T11:04:01.328Z,4.90
2022-09-01T11:09:45.848Z,4.38
2022-09-01T11:12:41.993Z,4.57
2022-09-01T11:15:35.840Z,4.55
2022-09-01T11:18:09.156Z,4.15
2022-09-01T11:20:39.768Z,6.78
2022-09-01T11:23:12.971Z,4.60
2022-09-01T11:25:43.996Z,4.82
2022-09-01T11:28:41.698Z,5.40
2022-09-01T11:31:33.288Z,4.40
2022-09-01T11:34:12.245Z,4.85
2022-09-01T11:36:52.789Z,4.40
2022-09-01T11:39:32.441Z,6.05
2022-09-01T11:42:04.586Z,4.82
2022-09-01T11:44:42.624Z,4.15
2022-09-01T11:47:16.662Z,4.82
2022-09-01T11:49:52.961Z,4.28
2022-09-01T11:52:23.028Z,4.72
2022-09-01T11:54:51.425Z,5.38
2022-09-01T11:57:29.416Z,6.70
2022-09-01T12:00:00.948Z,4.40
2022-09-01T12:02:36.564Z,5.22
2022-09-01T12:05:26.762Z,5.38
2022-09-01T12:07:55.792Z,4.25
2022-09-01T12:10:30.832Z,5.03
2022-09-01T12:13:04.837Z,4.65
2022-09-01T12:15:36.604Z,4.38
2022-09-01T12:18:14.876Z,5.38
2022-09-01T12:20:42.908Z,3.97
2022-09-01T12:23:20.445Z,7.05
2022-09-01T12:25:49.025Z,4.25
2022-09-01T12:28:19.818Z,4.25
2022-09-01T12:30:50.145Z,4.30
2022-09-01T12:33:23.867Z,4.72
2022-09-01T12:35:55.033Z,4.38
2022-09-01T12:38:38.856Z,4.30
2022-09-01T12:41:24.936Z,4.68
2022-09-01T12:43:54.648Z,3.92
2022-09-01T12:46:44.845Z,4.47
2022-09-01T12:49:20.639Z,4.57
2022-09-01T12:51:48.877Z,3.72
2022-09-01T12:54:17.329Z,4.43
2022-09-01T12:56:51.365Z,4.13
2022-09-01T12:59:33.666Z,4.07
2022-09-01T13:02:34.837Z,4.35
2022-09-01T13:05:30.623Z,4.50
2022-09-01T13:08:02.975Z,4.32
2022-09-01T13:10:34.405Z,4.07
2022-09-01T13:13:03.061Z,4.30
2022-09-01T13:15:31.364Z,4.22
2022-09-01T13:18:03.637Z,4.25
2022-09-01T13:20:32.004Z,4.10
2022-09-01T13:23:00.175Z,4.55
2022-09-01T13:25:28.112Z,4.40
2022-09-01T13:27:56.163Z,4.40
2022-09-01T13:30:28.413Z,3.95
2022-09-01T13:35:46.306Z,3.83
2022-09-01T13:38:16.734Z,4.18
2022-09-01T13:40:47.273Z,3.70
2022-09-01T13:43:15.781Z,3.55
2022-09-01T13:45:45.194Z,3.80
2022-09-01T13:48:15.880Z,4.10
2022-09-01T13:53:35.036Z,4.15
2022-09-01T13:56:03.700Z,3.72
2022-09-01T13:58:31.780Z,3.90
2022-09-01T14:01:00.239Z,3.97
2022-09-01T14:03:29.765Z,3.45
2022-09-01T14:05:59.173Z,3.85
2022-09-01T14:08:27.289Z,3.78
2022-09-01T14:10:55.393Z,3.63
2022-09-01T14:13:25.610Z,3.55
2022-09-01T14:15:54.533Z,3.75
2022-09-01T14:18:23.632Z,3.72
2022-09-01T14:20:54.640Z,4.00
2022-09-01T14:59:28.513Z,3.85
2022-09-01T15:01:56.729Z,4.00
2022-09-01T15:04:24.814Z,4.40
2022-09-01T15:06:53.056Z,3.90
2022-09-01T15:09:21.636Z,4.57
2022-09-01T15:11:49.728Z,3.80
2022-09-01T15:14:17.971Z,3.85
2022-09-01T15:16:47.306Z,3.78
2022-09-01T15:19:15.321Z,3.78
2022-09-01T15:21:44.790Z,3.55
2022-09-01T15:24:13.120Z,3.85
2022-09-01T15:26:41.800Z,3.90
2022-09-01T15:29:13.258Z,3.80
2022-09-01T15:31:41.419Z,3.95
2022-09-01T15:34:13.107Z,4.30
2022-09-01T15:36:44.444Z,3.83
2022-09-01T15:39:13.030Z,4.22
2022-09-01T15:41:41.053Z,4.20
2022-09-01T15:44:09.677Z,3.90
2022-09-01T15:46:41.227Z,4.25
2022-09-01T15:49:11.707Z,4.75
2022-09-01T15:51:41.116Z,3.75
2022-09-01T15:54:11.554Z,4.50
2022-09-01T15:56:40.132Z,4.10
2022-09-01T15:59:09.259Z,4.07
2022-09-01T16:01:40.906Z,4.22
2022-09-01T16:04:15.957Z,4.40
2022-09-01T16:06:58.735Z,4.00
2022-09-01T16:09:27.055Z,4.38
2022-09-01T16:11:55.143Z,3.95
2022-09-01T16:14:23.713Z,4.68
2022-09-01T16:16:59.359Z,4.65
2022-09-01T16:19:36.289Z,4.10
2022-09-01T16:22:13.117Z,4.15
2022-09-01T16:24:44.311Z,4.63
2022-09-01T16:27:15.773Z,4.00
2022-09-01T16:29:48.985Z,3.85
2022-09-01T16:32:18.715Z,3.97
2022-09-01T16:34:48.538Z,3.80
2022-09-01T16:37:26.021Z,4.35
2022-09-01T16:40:09.317Z,4.03
2022-09-01T16:42:47.018Z,4.32
2022-09-01T16:45:26.857Z,4.40
2022-09-01T16:48:02.437Z,4.50
2022-09-01T16:50:42.986Z,4.28
2022-09-01T16:53:23.560Z,4.50
2022-09-01T16:55:59.559Z,4.18
2022-09-01T16:58:39.695Z,4.00
2022-09-01T17:01:17.805Z,4.60
2022-09-01T17:03:56.860Z,4.30
2022-09-01T17:06:31.916Z,4.35
2022-09-01T17:09:10.035Z,3.67
2022-09-01T17:11:49.239Z,3.75
2022-09-01T17:14:27.770Z,4.15
2022-09-01T17:17:03.342Z,4.05
2022-09-01T17:19:31.768Z,4.28
2022-09-01T17:22:06.973Z,4.13
2022-09-01T17:24:39.792Z,4.53
2022-09-01T17:27:14.107Z,3.80
2022-09-01T17:29:46.049Z,4.05
2022-09-01T17:32:39.314Z,4.43
2022-09-01T17:35:16.048Z,4.38
2022-09-01T17:38:00.411Z,4.10
2022-09-01T17:40:46.073Z,4.05
2022-09-01T17:43:21.161Z,4.60
2022-09-01T17:45:57.476Z,4.45
2022-09-01T17:48:39.673Z,4.75
2022-09-01T17:51:15.600Z,5.07
2022-09-01T17:53:56.099Z,4.63
2022-09-01T17:56:37.735Z,4.13
2022-09-01T17:59:15.087Z,4.43
2022-09-01T18:01:54.295Z,6.45
2022-09-01T18:04:47.904Z,4.10
2022-09-01T18:07:28.323Z,4.47
2022-09-01T18:10:00.525Z,4.90
2022-09-01T18:12:31.955Z,5.00
2022-09-01T18:15:08.894Z,5.03
2022-09-01T18:17:40.313Z,4.80
2022-09-01T18:20:11.178Z,5.53
2022-09-01T18:22:44.350Z,4.97
2022-09-01T18:25:19.949Z,4.85
2022-09-01T18:27:48.764Z,4.70
2022-09-01T18:30:26.256Z,5.38
2022-09-01T18:33:15.216Z,4.40
2022-09-01T18:35:53.666Z,5.15
2022-09-01T18:38:33.323Z,5.28
2022-09-01T18:41:24.373Z,4.80
2022-09-01T18:44:03.600Z,5.47
2022-09-01T18:46:41.157Z,5.50
2022-09-01T18:49:19.326Z,6.10
2022-09-01T18:51:57.744Z,5.90
2022-09-01T18:54:35.640Z,5.90
2022-09-01T18:57:07.683Z,5.55
2022-09-01T18:59:48.909Z,6.18
2022-09-01T19:02:27.565Z,5.57
2022-09-01T19:05:00.291Z,5.47
2022-09-01T19:07:37.069Z,5.93
2022-09-01T19:10:16.304Z,5.20
2022-09-01T19:12:58.913Z,5.75
2022-09-01T19:15:34.869Z,5.50
2022-09-01T19:18:14.228Z,6.03
2022-09-01T19:20:51.064Z,6.88
2022-09-01T19:23:26.621Z,6.30
2022-09-01T19:26:03.427Z,7.95
2022-09-01T19:28:41.411Z,5.75
2022-09-01T19:31:17.920Z,5.55
2022-09-01T19:33:49.764Z,5.93
2022-09-01T19:36:21.288Z,6.30
2022-09-01T19:38:49.501Z,5.75
2022-09-01T19:41:23.737Z,5.50
2022-09-01T19:44:00.341Z,6.80
2022-09-01T19:46:36.347Z,5.55
2022-09-01T19:49:12.066Z,5.45
2022-09-01T19:51:44.329Z,5.78
2022-09-01T19:54:18.781Z,5.97
2022-09-01T19:56:53.060Z,5.60
2022-09-01T19:59:29.264Z,6.75
2022-09-01T20:02:00.820Z,5.45
2022-09-01T20:04:42.957Z,5.85
2022-09-01T20:07:19.433Z,5.97
2022-09-01T20:09:55.074Z,6.13
2022-09-01T20:12:32.129Z,5.78
2022-09-01T20:15:14.892Z,5.57
2022-09-01T20:17:49.499Z,5.93
2022-09-01T20:20:23.304Z,5.47
2022-09-01T20:22:59.459Z,6.10
2022-09-01T20:25:31.227Z,6.22
2022-09-01T20:28:04.924Z,5.50
2022-09-01T20:30:39.893Z,5.22
2022-09-01T20:33:16.125Z,5.45
2022-09-01T20:35:50.126Z,5.60
2022-09-01T20:38:42.148Z,5.60
2022-09-01T20:41:18.795Z,5.38
2022-09-01T20:43:52.199Z,6.45
2022-09-01T20:46:23.083Z,5.60
2022-09-01T20:48:51.825Z,5.55
2022-09-01T20:51:27.790Z,5.40
2022-09-01T20:54:20.404Z,5.20
2022-09-01T20:56:53.634Z,5.55
2022-09-01T20:59:29.317Z,5.63
2022-09-01T21:02:05.006Z,5.38
2022-09-01T21:04:42.762Z,5.72
2022-09-01T21:07:17.311Z,5.28
2022-09-01T21:09:58.385Z,5.63
2022-09-01T21:12:35.275Z,5.53
2022-09-01T21:15:16.367Z,5.68
2022-09-01T21:17:54.029Z,5.60
2022-09-01T21:20:33.005Z,5.20
2022-09-01T21:23:02.150Z,5.10
2022-09-01T21:25:34.980Z,5.28
2022-09-01T21:28:06.652Z,5.40
2022-09-01T21:30:36.939Z,6.40
2022-09-01T21:33:06.481Z,6.57
2022-09-01T21:35:34.554Z,5.53
2022-09-01T21:38:02.625Z,5.32
2022-09-01T21:40:31.237Z,5.30
2022-09-01T21:43:03.997Z,5.05
2022-09-01T21:45:34.234Z,4.95
2022-09-01T21:48:03.322Z,5.38
2022-09-01T21:50:33.290Z,5.47
2022-09-01T21:53:01.322Z,5.65
2022-09-01T21:55:29.992Z,5.28
2022-09-01T21:57:58.384Z,5.45
2022-09-01T22:00:28.347Z,5.07
2022-09-01T22:02:58.096Z,5.20
2022-09-01T22:05:27.257Z,5.05
2022-09-01T22:07:58.553Z,4.97
2022-09-01T22:10:28.643Z,5.50
2022-09-01T22:12:57.579Z,5.32
2022-09-01T22:15:26.857Z,5.25
2022-09-01T22:17:56.645Z,5.40
2022-09-01T22:20:28.530Z,5.50
2022-09-01T22:23:01.999Z,5.07
2022-09-01T22:25:31.493Z,5.15
2022-09-01T22:28:00.244Z,4.80
2022-09-01T22:30:28.395Z,4.90
2022-09-01T22:32:56.566Z,5.00
2022-09-01T22:35:24.743Z,5.18
2022-09-01T22:37:53.102Z,4.88
2022-09-01T22:40:22.815Z,5.22
2022-09-01T22:42:52.528Z,5.30
2022-09-01T22:45:21.099Z,5.60
2022-09-01T22:47:49.170Z,5.93
2022-09-01T22:50:17.343Z,4.93
2022-09-01T22:52:45.532Z,4.80
2022-09-01T22:55:13.756Z,5.22
2022-09-01T22:57:43.784Z,5.30
2022-09-01T23:00:12.939Z,5.05
2022-09-01T23:02:41.067Z,4.90
2022-09-01T23:05:09.697Z,5.50
2022-09-01T23:07:39.486Z,5.50
2022-09-01T23:10:10.016Z,5.18
2022-09-01T23:12:38.895Z,4.80
2022-09-01T23:15:10.638Z,5.32
2022-09-01T23:17:38.939Z,5.00
2022-09-01T23:20:11.626Z,5.10
2022-09-01T23:22:40.176Z,4.90
2022-09-01T23:25:10.444Z,5.30
2022-09-01T23:27:38.488Z,5.70
2022-09-01T23:30:10.950Z,5.28
2022-09-01T23:32:39.501Z,4.78
2022-09-01T23:35:08.923Z,5.78
2022-09-01T23:37:37.003Z,4.78
2022-09-01T23:40:07.329Z,5.50
2022-09-01T23:42:35.444Z,5.88
2022-09-01T23:45:03.500Z,5.18
2022-09-01T23:47:33.176Z,5.45
2022-09-01T23:50:02.542Z,4.90
2022-09-01T23:52:30.961Z,5.03
2022-09-01T23:54:58.923Z,5.03
2022-09-01T23:57:26.865Z,5.22
2022-09-01T23:59:57.863Z,4.97
